createdAt,value
2023-01-11T00:54:36.549Z,697.00
2023-01-11T00:55:37.464Z,695.00
2023-01-11T00:56:37.388Z,692.00
2023-01-11T00:57:37.397Z,693.00
2023-01-11T00:58:37.342Z,691.00
2023-01-11T00:59:37.363Z,691.00
2023-01-11T01:00:37.287Z,692.00
2023-01-11T01:01:37.291Z,691.00
2023-01-11T01:02:37.297Z,692.00
2023-01-11T01:03:37.205Z,695.00
2023-01-11T01:04:37.189Z,698.00
2023-01-11T01:05:37.163Z,699.00
2023-01-11T01:06:37.168Z,700.00
2023-01-11T01:07:37.137Z,700.00
2023-01-11T01:08:37.116Z,696.00
2023-01-11T01:09:37.076Z,696.00
2023-01-11T01:10:37.069Z,698.00
2023-01-11T01:11:37.022Z,697.00
2023-01-11T01:12:37.081Z,695.00
2023-01-11T01:13:36.985Z,696.00
2023-01-11T01:14:36.963Z,695.00
2023-01-11T01:15:36.973Z,692.00
2023-01-11T01:16:36.926Z,692.00
2023-01-11T01:17:36.979Z,693.00
2023-01-11T01:18:36.865Z,694.00
2023-01-11T01:19:36.857Z,697.00
2023-01-11T01:20:36.816Z,694.00
2023-01-11T01:21:36.792Z,692.00
2023-01-11T01:22:36.798Z,693.00
2023-01-11T01:23:36.759Z,697.00
2023-01-11T01:24:36.722Z,699.00
2023-01-11T01:25:36.696Z,701.00
2023-01-11T01:26:36.744Z,702.00
2023-01-11T01:27:36.658Z,700.00
2023-01-11T01:28:36.639Z,698.00
2023-01-11T01:29:36.603Z,700.00
2023-01-11T01:30:36.575Z,699.00
2023-01-11T01:31:36.606Z,697.00
2023-01-11T01:32:36.535Z,695.00
2023-01-11T01:33:36.505Z,692.00
2023-01-11T01:34:36.495Z,685.00
2023-01-11T01:35:36.468Z,684.00
2023-01-11T01:36:36.446Z,686.00
2023-01-11T01:37:36.437Z,684.00
2023-01-11T01:38:36.457Z,686.00
2023-01-11T01:39:36.378Z,686.00
2023-01-11T01:40:36.350Z,684.00
2023-01-11T01:41:36.336Z,686.00
2023-01-11T01:42:36.334Z,685.00
2023-01-11T01:43:36.287Z,689.00
2023-01-11T01:44:36.270Z,688.00
2023-01-11T01:45:36.238Z,690.00
2023-01-11T01:46:36.251Z,688.00
2023-01-11T01:47:36.188Z,687.00
2023-01-11T01:48:36.171Z,687.00
2023-01-11T01:49:36.140Z,684.00
2023-01-11T01:50:36.124Z,682.00
2023-01-11T01:51:36.102Z,682.00
2023-01-11T01:52:36.071Z,680.00
2023-01-11T01:53:36.043Z,681.00
2023-01-11T01:54:36.024Z,682.00
2023-01-11T01:55:36.006Z,683.00
2023-01-11T01:56:35.984Z,683.00
2023-01-11T01:57:35.972Z,683.00
2023-01-11T01:58:35.975Z,682.00
2023-01-11T01:59:35.937Z,678.00
2023-01-11T02:00:36.506Z,681.00
2023-01-11T02:01:35.975Z,682.00
2023-01-11T02:02:35.969Z,686.00
2023-01-11T02:03:35.914Z,685.00
2023-01-11T02:04:35.856Z,684.00
2023-01-11T02:05:35.843Z,682.00
2023-01-11T02:06:35.911Z,677.00
2023-01-11T02:07:35.805Z,672.00
2023-01-11T02:08:35.800Z,671.00
2023-01-11T02:09:35.769Z,673.00
2023-01-11T02:10:35.755Z,671.00
2023-01-11T02:11:35.732Z,676.00
2023-01-11T02:12:35.724Z,677.00
2023-01-11T02:13:35.700Z,680.00
2023-01-11T02:14:35.704Z,680.00
2023-01-11T02:15:35.653Z,680.00
2023-01-11T02:16:35.633Z,678.00
2023-01-11T02:17:35.626Z,678.00
2023-01-11T02:18:35.588Z,677.00
2023-01-11T02:19:35.569Z,676.00
2023-01-11T02:20:35.553Z,676.00
2023-01-11T02:21:35.520Z,678.00
2023-01-11T02:22:35.502Z,680.00
2023-01-11T02:23:35.473Z,683.00
2023-01-11T02:24:35.451Z,680.00
2023-01-11T02:25:35.431Z,678.00
2023-01-11T02:26:35.406Z,679.00
2023-01-11T02:27:35.390Z,680.00
2023-01-11T02:28:35.385Z,680.00
2023-01-11T02:29:35.325Z,678.00
2023-01-11T02:30:35.326Z,681.00
2023-01-11T02:31:35.395Z,682.00
2023-01-11T02:32:35.260Z,681.00
2023-01-11T02:33:35.253Z,677.00
2023-01-11T02:34:35.213Z,678.00
2023-01-11T02:35:35.191Z,673.00
2023-01-11T02:36:35.168Z,670.00
2023-01-11T02:37:35.137Z,667.00
2023-01-11T02:38:35.120Z,668.00
2023-01-11T02:39:35.101Z,666.00
2023-01-11T02:40:35.088Z,666.00
2023-01-11T02:41:35.059Z,668.00
2023-01-11T02:42:35.032Z,671.00
2023-01-11T02:43:35.012Z,670.00
2023-01-11T02:44:34.985Z,668.00
2023-01-11T02:45:34.964Z,665.00
2023-01-11T02:46:35.046Z,664.00
2023-01-11T02:47:34.947Z,663.00
2023-01-11T02:48:34.902Z,660.00
2023-01-11T02:49:34.901Z,659.00
2023-01-11T02:50:34.871Z,660.00
2023-01-11T02:51:34.843Z,659.00
2023-01-11T02:52:34.825Z,659.00
2023-01-11T02:53:34.794Z,661.00
2023-01-11T02:54:34.765Z,661.00
2023-01-11T02:55:34.742Z,660.00
2023-01-11T02:56:34.719Z,660.00
2023-01-11T02:57:34.688Z,658.00
2023-01-11T02:58:34.692Z,656.00
2023-01-11T02:59:34.650Z,659.00
2023-01-11T03:00:34.629Z,661.00
2023-01-11T03:01:34.622Z,660.00
2023-01-11T03:02:34.632Z,656.00
2023-01-11T03:03:34.569Z,656.00
2023-01-11T03:04:34.545Z,655.00
2023-01-11T03:05:34.521Z,656.00
2023-01-11T03:06:34.540Z,655.00
2023-01-11T03:07:34.484Z,655.00
2023-01-11T03:08:34.491Z,655.00
2023-01-11T03:09:34.446Z,654.00
2023-01-11T03:10:34.461Z,655.00
2023-01-11T03:11:34.401Z,652.00
2023-01-11T03:12:34.385Z,654.00
2023-01-11T03:13:34.357Z,655.00
2023-01-11T03:14:34.346Z,652.00
2023-01-11T03:15:34.321Z,653.00
2023-01-11T03:16:34.296Z,653.00
2023-01-11T03:17:34.275Z,651.00
2023-01-11T03:18:34.291Z,652.00
2023-01-11T03:19:34.262Z,651.00
2023-01-11T03:20:34.243Z,649.00
2023-01-11T03:21:34.224Z,652.00
2023-01-11T03:22:34.210Z,653.00
2023-01-11T03:23:34.182Z,651.00
2023-01-11T03:24:34.159Z,651.00
2023-01-11T03:25:34.142Z,650.00
2023-01-11T03:26:34.115Z,649.00
2023-01-11T03:27:34.103Z,646.00
2023-01-11T03:28:34.085Z,645.00
2023-01-11T03:29:34.068Z,645.00
2023-01-11T03:30:34.060Z,643.00
2023-01-11T03:31:34.108Z,645.00
2023-01-11T03:32:34.015Z,645.00
2023-01-11T03:33:33.993Z,646.00
2023-01-11T03:34:33.998Z,648.00
2023-01-11T03:35:33.957Z,647.00
2023-01-11T03:36:33.955Z,647.00
2023-01-11T03:37:33.925Z,648.00
2023-01-11T03:38:33.904Z,649.00
2023-01-11T03:39:33.892Z,647.00
2023-01-11T03:40:33.872Z,645.00
2023-01-11T03:41:33.845Z,645.00
2023-01-11T03:42:33.849Z,644.00
2023-01-11T03:43:33.817Z,641.00
2023-01-11T03:44:33.808Z,641.00
2023-01-11T03:45:33.777Z,639.00
2023-01-11T03:46:33.847Z,639.00
2023-01-11T03:47:33.736Z,641.00
2023-01-11T03:48:33.717Z,642.00
2023-01-11T03:49:33.711Z,641.00
2023-01-11T03:50:33.741Z,641.00
2023-01-11T03:51:33.683Z,641.00
2023-01-11T03:52:33.654Z,640.00
2023-01-11T03:53:33.635Z,640.00
2023-01-11T03:54:33.614Z,638.00
2023-01-11T03:55:33.601Z,638.00
2023-01-11T03:56:33.583Z,638.00
2023-01-11T03:57:33.565Z,636.00
2023-01-11T03:58:33.560Z,637.00
2023-01-11T03:59:33.528Z,639.00
2023-01-11T04:00:33.536Z,638.00
2023-01-11T04:01:33.484Z,636.00
2023-01-11T04:02:33.473Z,634.00
2023-01-11T04:03:33.460Z,634.00
2023-01-11T04:04:33.495Z,633.00
2023-01-11T04:05:33.434Z,632.00
2023-01-11T04:06:33.589Z,633.00
2023-01-11T04:07:33.428Z,633.00
2023-01-11T04:08:33.380Z,634.00
2023-01-11T04:09:33.363Z,633.00
2023-01-11T04:10:33.354Z,635.00
2023-01-11T04:11:33.305Z,634.00
2023-01-11T04:12:33.296Z,635.00
2023-01-11T04:13:33.260Z,632.00
2023-01-11T04:14:33.293Z,630.00
2023-01-11T04:15:33.217Z,626.00
2023-01-11T04:16:33.205Z,625.00
2023-01-11T04:17:33.180Z,625.00
2023-01-11T04:18:33.151Z,621.00
2023-01-11T04:19:33.132Z,620.00
2023-01-11T04:20:33.120Z,620.00
2023-01-11T04:21:33.103Z,620.00
2023-01-11T04:22:33.087Z,621.00
2023-01-11T04:23:33.041Z,622.00
2023-01-11T04:24:33.015Z,621.00
2023-01-11T04:25:32.991Z,624.00
2023-01-11T04:26:32.979Z,627.00
2023-01-11T04:27:32.948Z,626.00
2023-01-11T04:28:32.920Z,626.00
2023-01-11T04:29:32.906Z,624.00
2023-01-11T04:30:32.875Z,626.00
2023-01-11T04:31:32.926Z,628.00
2023-01-11T04:32:32.833Z,627.00
2023-01-11T04:33:32.811Z,624.00
2023-01-11T04:34:32.783Z,624.00
2023-01-11T04:35:32.807Z,628.00
2023-01-11T04:36:32.745Z,629.00
2023-01-11T04:37:32.720Z,630.00
2023-01-11T04:38:32.712Z,627.00
2023-01-11T04:39:32.655Z,627.00
2023-01-11T04:40:32.700Z,627.00
2023-01-11T04:41:32.618Z,626.00
2023-01-11T04:42:32.596Z,624.00
2023-01-11T04:43:32.568Z,625.00
2023-01-11T04:44:32.540Z,624.00
2023-01-11T04:45:32.680Z,625.00
2023-01-11T04:46:32.498Z,625.00
2023-01-11T04:47:32.489Z,626.00
2023-01-11T04:48:32.454Z,623.00
2023-01-11T04:49:32.432Z,625.00
2023-01-11T04:50:32.510Z,624.00
2023-01-11T04:51:32.389Z,623.00
2023-01-11T04:52:32.360Z,618.00
2023-01-11T04:53:32.341Z,617.00
2023-01-11T04:54:32.338Z,617.00
2023-01-11T04:55:32.284Z,614.00
2023-01-11T04:56:32.257Z,617.00
2023-01-11T04:57:32.228Z,619.00
2023-01-11T04:58:32.203Z,621.00
2023-01-11T04:59:32.183Z,621.00
2023-01-11T05:00:32.150Z,619.00
2023-01-11T05:01:32.225Z,619.00
2023-01-11T05:02:32.096Z,620.00
2023-01-11T05:03:32.066Z,619.00
2023-01-11T05:04:32.149Z,619.00
2023-01-11T05:05:32.023Z,621.00
2023-01-11T05:06:32.010Z,623.00
2023-01-11T05:07:31.956Z,623.00
2023-01-11T05:08:31.935Z,624.00
2023-01-11T05:09:31.910Z,623.00
2023-01-11T05:10:31.915Z,621.00
2023-01-11T05:11:31.865Z,617.00
2023-01-11T05:12:31.825Z,614.00
2023-01-11T05:13:31.795Z,612.00
2023-01-11T05:14:31.759Z,611.00
2023-01-11T05:15:31.742Z,611.00
2023-01-11T05:16:31.755Z,610.00
2023-01-11T05:17:31.684Z,611.00
2023-01-11T05:18:31.694Z,610.00
2023-01-11T05:19:31.640Z,609.00
2023-01-11T05:20:31.620Z,609.00
2023-01-11T05:21:31.594Z,606.00
2023-01-11T05:22:31.570Z,606.00
2023-01-11T05:23:31.539Z,604.00
2023-01-11T05:24:31.521Z,607.00
2023-01-11T05:25:31.497Z,609.00
2023-01-11T05:26:33.922Z,608.00
2023-01-11T05:27:31.467Z,608.00
2023-01-11T05:28:31.424Z,609.00
2023-01-11T05:29:31.411Z,609.00
2023-01-11T05:30:31.393Z,608.00
2023-01-11T05:31:31.400Z,609.00
2023-01-11T05:32:31.358Z,610.00
2023-01-11T05:33:31.325Z,611.00
2023-01-11T05:34:31.309Z,609.00
2023-01-11T05:35:31.296Z,606.00
2023-01-11T05:36:31.257Z,605.00
2023-01-11T05:37:31.239Z,604.00
2023-01-11T05:38:31.224Z,604.00
2023-01-11T05:39:31.239Z,605.00
2023-01-11T05:40:31.183Z,606.00
2023-01-11T05:41:31.162Z,608.00
2023-01-11T05:42:31.169Z,606.00
2023-01-11T05:43:31.127Z,602.00
2023-01-11T05:44:31.129Z,603.00
2023-01-11T05:45:31.106Z,602.00
2023-01-11T05:46:31.074Z,599.00
2023-01-11T05:47:31.050Z,599.00
2023-01-11T05:48:31.035Z,596.00
2023-01-11T05:49:31.048Z,596.00
2023-01-11T05:50:30.996Z,597.00
2023-01-11T05:51:30.970Z,596.00
2023-01-11T05:52:30.947Z,598.00
2023-01-11T05:53:30.936Z,599.00
2023-01-11T05:54:30.914Z,601.00
2023-01-11T05:55:30.896Z,601.00
2023-01-11T05:56:30.870Z,602.00
2023-01-11T05:57:30.863Z,603.00
2023-01-11T05:58:30.864Z,603.00
2023-01-11T05:59:32.196Z,606.00
2023-01-11T06:00:30.800Z,604.00
2023-01-11T06:01:30.778Z,603.00
2023-01-11T06:02:30.881Z,601.00
2023-01-11T06:03:30.742Z,603.00
2023-01-11T06:04:30.720Z,603.00
2023-01-11T06:05:30.711Z,603.00
2023-01-11T06:06:30.728Z,602.00
2023-01-11T06:07:30.665Z,600.00
2023-01-11T06:08:30.649Z,599.00
2023-01-11T06:09:30.632Z,598.00
2023-01-11T06:10:30.613Z,597.00
2023-01-11T06:11:30.605Z,595.00
2023-01-11T06:12:30.579Z,597.00
2023-01-11T06:13:30.639Z,595.00
2023-01-11T06:14:30.572Z,597.00
2023-01-11T06:15:30.530Z,598.00
2023-01-11T06:16:30.586Z,598.00
2023-01-11T06:17:31.103Z,601.00
2023-01-11T06:18:30.594Z,603.00
2023-01-11T06:19:30.475Z,604.00
2023-01-11T06:20:30.452Z,608.00
2023-01-11T06:21:30.438Z,608.00
2023-01-11T06:22:30.600Z,607.00
2023-01-11T06:23:30.410Z,612.00
2023-01-11T06:24:30.383Z,612.00
2023-01-11T06:25:30.368Z,614.00
2023-01-11T06:26:30.349Z,619.00
2023-01-11T06:27:30.341Z,622.00
2023-01-11T06:28:30.327Z,624.00
2023-01-11T06:29:30.302Z,624.00
2023-01-11T06:30:30.363Z,624.00
2023-01-11T06:31:30.280Z,623.00
2023-01-11T06:32:30.273Z,622.00
2023-01-11T06:33:30.603Z,622.00
2023-01-11T06:34:30.238Z,624.00
2023-01-11T06:35:30.610Z,625.00
2023-01-11T06:36:30.197Z,624.00
2023-01-11T06:37:30.676Z,626.00
2023-01-11T06:38:30.158Z,628.00
2023-01-11T06:39:30.138Z,630.00
2023-01-11T06:40:30.607Z,629.00
2023-01-11T06:41:30.091Z,631.00
2023-01-11T06:42:30.303Z,633.00
2023-01-11T06:43:30.060Z,625.00
2023-01-11T06:44:30.051Z,626.00
2023-01-11T06:45:30.117Z,626.00
2023-01-11T06:46:30.773Z,627.00
2023-01-11T06:47:30.286Z,633.00
2023-01-11T06:48:30.525Z,641.00
2023-01-11T06:49:30.144Z,652.00
2023-01-11T06:50:30.353Z,659.00
2023-01-11T06:51:30.043Z,667.00
2023-01-11T06:52:30.226Z,676.00
2023-01-11T06:53:30.117Z,734.00
2023-01-11T06:54:29.768Z,750.00
2023-01-11T06:55:30.145Z,735.00
2023-01-11T06:56:29.717Z,653.00
2023-01-11T06:57:29.697Z,638.00
2023-01-11T06:58:37.079Z,639.00
2023-01-11T06:59:30.283Z,656.00
2023-01-11T07:00:29.714Z,647.00
2023-01-11T07:01:29.689Z,672.00
2023-01-11T07:02:29.719Z,664.00
2023-01-11T07:03:30.693Z,655.00
2023-01-11T07:04:30.512Z,716.00
2023-01-11T07:05:30.025Z,725.00
2023-01-11T07:07:30.294Z,722.00
2023-01-11T07:09:29.637Z,744.00
2023-01-11T07:10:29.680Z,801.00
2023-01-11T07:11:29.682Z,867.00
2023-01-11T07:12:29.637Z,890.00
2023-01-11T07:13:29.618Z,910.00
2023-01-11T07:14:29.601Z,926.00
2023-01-11T07:15:29.562Z,948.00
2023-01-11T07:16:29.629Z,964.00
2023-01-11T07:17:29.594Z,980.00
2023-01-11T07:18:29.521Z,996.00
2023-01-11T07:19:29.487Z,1015.00
2023-01-11T07:20:29.449Z,1029.00
2023-01-11T07:21:29.624Z,1039.00
2023-01-11T07:22:29.619Z,1058.00
2023-01-11T07:23:29.378Z,1077.00
2023-01-11T07:24:29.623Z,1090.00
2023-01-11T07:25:29.322Z,1099.00
2023-01-11T07:26:29.339Z,1113.00
2023-01-11T07:27:29.284Z,1132.00
2023-01-11T07:28:29.624Z,1149.00
2023-01-11T07:29:29.292Z,1181.00
2023-01-11T07:30:29.206Z,1194.00
2023-01-11T07:31:29.260Z,1212.00
2023-01-11T07:32:29.161Z,1224.00
2023-01-11T07:33:29.651Z,1238.00
2023-01-11T07:34:29.131Z,1254.00
2023-01-11T07:35:29.192Z,1266.00
2023-01-11T07:36:32.244Z,1277.00
2023-01-11T07:37:29.635Z,1292.00
2023-01-11T07:38:29.132Z,1317.00
2023-01-11T07:39:42.189Z,1329.00
2023-01-11T07:40:29.155Z,1361.00
2023-01-11T07:41:28.900Z,1371.00
2023-01-11T07:42:28.872Z,1389.00
2023-01-11T07:43:28.844Z,1393.00
2023-01-11T07:44:28.820Z,1403.00
2023-01-11T07:45:44.524Z,1427.00
2023-01-11T07:46:29.816Z,1442.00
2023-01-11T07:47:28.766Z,1449.00
2023-01-11T07:48:28.714Z,1456.00
2023-01-11T07:49:28.812Z,1466.00
2023-01-11T07:50:29.197Z,1471.00
2023-01-11T07:51:28.626Z,1469.00
2023-01-11T07:52:28.604Z,1462.00
2023-01-11T07:53:28.645Z,1459.00
2023-01-11T07:54:28.691Z,1455.00
2023-01-11T07:55:36.057Z,1450.00
2023-01-11T07:56:28.500Z,1448.00
2023-01-11T07:57:28.633Z,1444.00
2023-01-11T07:58:28.494Z,1439.00
2023-01-11T07:59:28.423Z,1439.00
2023-01-11T08:00:28.455Z,1435.00
2023-01-11T08:01:28.376Z,1434.00
2023-01-11T08:02:28.786Z,1431.00
2023-01-11T08:03:28.428Z,1430.00
2023-01-11T08:04:28.451Z,1431.00
2023-01-11T08:05:28.277Z,1428.00
2023-01-11T08:06:28.306Z,1428.00
2023-01-11T08:07:28.644Z,1426.00
2023-01-11T08:08:28.475Z,1418.00
2023-01-11T08:09:28.189Z,1409.00
2023-01-11T08:10:28.170Z,1416.00
2023-01-11T08:11:29.546Z,1414.00
2023-01-11T08:12:28.138Z,1411.00
2023-01-11T08:13:28.107Z,1411.00
2023-01-11T08:14:28.084Z,1408.00
2023-01-11T08:15:28.066Z,1410.00
2023-01-11T08:16:31.242Z,1408.00
2023-01-11T08:17:28.147Z,1406.00
2023-01-11T08:18:28.028Z,1402.00
2023-01-11T08:19:27.980Z,1399.00
2023-01-11T08:20:28.222Z,1396.00
2023-01-11T08:21:27.953Z,1396.00
2023-01-11T08:22:28.019Z,1393.00
2023-01-11T08:23:27.899Z,1390.00
2023-01-11T08:24:27.876Z,1385.00
2023-01-11T08:25:27.857Z,1383.00
2023-01-11T08:26:28.152Z,1382.00
2023-01-11T08:27:27.816Z,1383.00
2023-01-11T08:28:27.794Z,1382.00
2023-01-11T08:29:27.773Z,1376.00
2023-01-11T08:30:28.258Z,1374.00
2023-01-11T08:31:27.857Z,1369.00
2023-01-11T08:32:28.146Z,1370.00
2023-01-11T08:33:27.696Z,1364.00
2023-01-11T08:34:27.667Z,1358.00
2023-01-11T08:35:27.657Z,1359.00
2023-01-11T08:36:27.632Z,1372.00
2023-01-11T08:37:27.652Z,1382.00
2023-01-11T08:38:27.619Z,1432.00
2023-01-11T08:39:27.586Z,1438.00
2023-01-11T08:40:27.551Z,1445.00
2023-01-11T08:41:27.543Z,1450.00
2023-01-11T08:42:27.654Z,1466.00
2023-01-11T08:43:27.505Z,1487.00
2023-01-11T08:44:34.213Z,1509.00
2023-01-11T08:45:27.519Z,1538.00
2023-01-11T08:46:27.684Z,1560.00
2023-01-11T08:51:27.658Z,1645.00
2023-01-11T08:53:27.652Z,1647.00
2023-01-11T09:24:28.686Z,1555.00
2023-01-11T09:36:27.475Z,1510.00
2023-01-11T12:01:23.341Z,2397.00
2023-01-11T12:02:23.310Z,2396.00
2023-01-11T12:03:23.316Z,2403.00
2023-01-11T12:04:23.290Z,2398.00
2023-01-11T12:05:23.226Z,2391.00
2023-01-11T12:06:23.147Z,2389.00
2023-01-11T12:07:23.217Z,2391.00
2023-01-11T12:08:23.066Z,2393.00
2023-01-11T12:09:23.064Z,2383.00
2023-01-11T12:10:23.220Z,2369.00
2023-01-11T12:11:22.962Z,2351.00
2023-01-11T12:12:25.901Z,2336.00
2023-01-11T12:13:22.897Z,2317.00
2023-01-11T12:14:22.930Z,2292.00
2023-01-11T12:15:23.238Z,2270.00
2023-01-11T12:16:23.301Z,2252.00
2023-01-11T12:17:22.783Z,2238.00
2023-01-11T12:18:22.736Z,2227.00
2023-01-11T12:19:22.723Z,2218.00
2023-01-11T12:20:22.837Z,2214.00
2023-01-11T12:21:22.658Z,2213.00
2023-01-11T12:22:22.718Z,2211.00
2023-01-11T12:23:22.576Z,2210.00
2023-01-11T12:24:22.794Z,2204.00
2023-01-11T12:25:22.548Z,2202.00
2023-01-11T12:26:22.484Z,2198.00
2023-01-11T12:27:22.546Z,2195.00
2023-01-11T12:28:22.420Z,2194.00
2023-01-11T12:29:22.395Z,2197.00
2023-01-11T12:30:22.353Z,2197.00
2023-01-11T12:31:22.729Z,2198.00
2023-01-11T12:32:22.295Z,2190.00
2023-01-11T12:33:22.270Z,2185.00
2023-01-11T12:34:22.335Z,2182.00
2023-01-11T12:35:22.223Z,2177.00
2023-01-11T12:36:22.187Z,2177.00
2023-01-11T12:37:22.155Z,2178.00
2023-01-11T12:38:22.166Z,2174.00
2023-01-11T12:39:22.103Z,2169.00
2023-01-11T12:40:22.053Z,2159.00
2023-01-11T12:41:22.044Z,2159.00
2023-01-11T12:42:22.231Z,2153.00
2023-01-11T12:43:22.231Z,2153.00
2023-01-11T12:44:21.992Z,2151.00
2023-01-11T12:45:21.923Z,2150.00
2023-01-11T12:46:21.909Z,2147.00
2023-01-11T12:47:21.876Z,2138.00
2023-01-11T12:48:21.831Z,2134.00
2023-01-11T12:49:21.838Z,2130.00
2023-01-11T12:50:21.779Z,2126.00
2023-01-11T12:51:21.776Z,2122.00
2023-01-11T12:52:21.729Z,2125.00
2023-01-11T12:53:21.702Z,2125.00
2023-01-11T12:54:21.796Z,2125.00
2023-01-11T12:55:21.644Z,2128.00
2023-01-11T12:56:21.639Z,2128.00
2023-01-11T12:57:21.600Z,2127.00
2023-01-11T12:58:21.581Z,2127.00
2023-01-11T12:59:21.740Z,2124.00
2023-01-11T13:00:21.745Z,2125.00
2023-01-11T13:01:21.795Z,2122.00
2023-01-11T13:02:21.523Z,2120.00
2023-01-11T13:03:21.449Z,2122.00
2023-01-11T13:04:21.556Z,2119.00
2023-01-11T13:05:21.404Z,2116.00
2023-01-11T13:06:21.379Z,2113.00
2023-01-11T13:07:21.353Z,2109.00
2023-01-11T13:08:21.323Z,2106.00
2023-01-11T13:09:21.753Z,2105.00
2023-01-11T13:10:21.329Z,2099.00
2023-01-11T13:11:21.285Z,2097.00
2023-01-11T13:12:21.242Z,2097.00
2023-01-11T13:13:21.213Z,2095.00
2023-01-11T13:14:22.431Z,2091.00
2023-01-11T13:15:21.158Z,2085.00
2023-01-11T13:16:21.759Z,2081.00
2023-01-11T13:17:21.111Z,2085.00
2023-01-11T13:18:21.077Z,2082.00
2023-01-11T13:19:21.054Z,2079.00
2023-01-11T13:20:21.041Z,2078.00
2023-01-11T13:21:21.007Z,2072.00
2023-01-11T13:22:20.979Z,2069.00
2023-01-11T13:23:20.955Z,2069.00
2023-01-11T13:24:20.933Z,2065.00
2023-01-11T13:25:20.911Z,2063.00
2023-01-11T13:26:20.907Z,2067.00
2023-01-11T13:27:20.977Z,2063.00
2023-01-11T13:28:24.438Z,2057.00
2023-01-11T13:29:20.811Z,2055.00
2023-01-11T13:30:21.247Z,2056.00
2023-01-11T13:31:20.822Z,2054.00
2023-01-11T13:32:20.770Z,2053.00
2023-01-11T13:33:20.710Z,2051.00
2023-01-11T13:34:20.704Z,2047.00
2023-01-11T13:35:20.798Z,2047.00
2023-01-11T13:36:23.769Z,2044.00
2023-01-11T13:37:20.785Z,2042.00
2023-01-11T13:38:20.607Z,2035.00
2023-01-11T13:39:20.590Z,2032.00
2023-01-11T13:40:20.582Z,2028.00
2023-01-11T13:41:20.527Z,2023.00
2023-01-11T13:42:20.559Z,2017.00
2023-01-11T13:43:20.497Z,2014.00
2023-01-11T13:44:20.473Z,2007.00
2023-01-11T13:45:20.455Z,2003.00
2023-01-11T13:46:20.463Z,1999.00
2023-01-11T13:47:20.408Z,1998.00
2023-01-11T13:48:20.387Z,1998.00
2023-01-11T13:49:20.372Z,1998.00
2023-01-11T13:50:20.340Z,1996.00
2023-01-11T13:51:20.757Z,1991.00
2023-01-11T13:52:20.335Z,1988.00
2023-01-11T13:53:20.279Z,1986.00
2023-01-11T13:54:20.264Z,1983.00
2023-01-11T13:55:26.160Z,1979.00
2023-01-11T13:56:20.255Z,1977.00
2023-01-11T13:57:20.197Z,1975.00
2023-01-11T13:58:20.200Z,1977.00
2023-01-11T13:59:20.155Z,1968.00
2023-01-11T14:00:21.120Z,1969.00
2023-01-11T14:01:20.220Z,1970.00
2023-01-11T14:02:20.092Z,1968.00
2023-01-11T14:03:20.298Z,1968.00
2023-01-11T14:04:20.059Z,1969.00
2023-01-11T14:05:20.037Z,1966.00
2023-01-11T14:06:20.016Z,1963.00
2023-01-11T14:07:19.982Z,1955.00
2023-01-11T14:08:19.981Z,1948.00
2023-01-11T14:09:19.938Z,1944.00
2023-01-11T14:10:19.936Z,1943.00
2023-01-11T14:11:20.264Z,1940.00
2023-01-11T14:12:19.882Z,1935.00
2023-01-11T14:13:19.883Z,1928.00
2023-01-11T14:14:19.901Z,1928.00
2023-01-11T14:15:19.834Z,1925.00
2023-01-11T14:16:20.308Z,1925.00
2023-01-11T14:17:19.795Z,1925.00
2023-01-11T14:18:20.292Z,1923.00
2023-01-11T14:19:19.755Z,1926.00
2023-01-11T14:20:19.740Z,1921.00
2023-01-11T14:21:19.713Z,1916.00
2023-01-11T14:22:19.688Z,1909.00
2023-01-11T14:23:19.676Z,1909.00
2023-01-11T14:24:19.769Z,1912.00
2023-01-11T14:25:19.623Z,1905.00
2023-01-11T14:26:19.613Z,1906.00
2023-01-11T14:27:19.672Z,1903.00
2023-01-11T14:28:19.569Z,1904.00
2023-01-11T14:29:19.557Z,1900.00
2023-01-11T14:30:19.549Z,1895.00
2023-01-11T14:31:19.583Z,1896.00
2023-01-11T14:32:19.482Z,1897.00
2023-01-11T14:33:19.504Z,1893.00
2023-01-11T14:34:19.431Z,1890.00
2023-01-11T14:35:19.407Z,1887.00
2023-01-11T14:36:19.381Z,1881.00
2023-01-11T14:37:19.363Z,1876.00
2023-01-11T14:38:19.339Z,1871.00
2023-01-11T14:39:19.768Z,1870.00
2023-01-11T14:40:19.305Z,1868.00
2023-01-11T14:41:19.285Z,1866.00
2023-01-11T14:42:31.100Z,1863.00
2023-01-11T14:43:19.242Z,1856.00
2023-01-11T14:44:19.230Z,1853.00
2023-01-11T14:45:19.205Z,1855.00
2023-01-11T14:46:19.328Z,1849.00
2023-01-11T14:47:19.188Z,1846.00
2023-01-11T14:48:19.174Z,1844.00
2023-01-11T14:49:19.154Z,1841.00
2023-01-11T14:50:19.130Z,1841.00
2023-01-11T14:51:19.103Z,1836.00
2023-01-11T14:52:21.278Z,1834.00
2023-01-11T14:53:19.081Z,1836.00
2023-01-11T14:54:19.280Z,1845.00
2023-01-11T14:55:19.037Z,1627.00
2023-01-11T14:56:19.013Z,1641.00
2023-01-11T14:57:19.003Z,1645.00
2023-01-11T14:58:18.983Z,1654.00
2023-01-11T14:59:18.956Z,1647.00
2023-01-11T15:00:18.941Z,1636.00
2023-01-11T15:01:18.923Z,1609.00
2023-01-11T15:02:18.935Z,1579.00
2023-01-11T15:03:18.880Z,1552.00
2023-01-11T15:04:18.890Z,1527.00
2023-01-11T15:05:18.826Z,1507.00
2023-01-11T15:06:18.829Z,1487.00
2023-01-11T15:07:19.282Z,1478.00
2023-01-11T15:08:18.768Z,1471.00
2023-01-11T15:09:18.768Z,1467.00
2023-01-11T15:10:18.732Z,1462.00
2023-01-11T15:11:18.712Z,1459.00
2023-01-11T15:12:18.819Z,1454.00
2023-01-11T15:13:18.665Z,1449.00
2023-01-11T15:14:18.696Z,1446.00
2023-01-11T15:15:18.707Z,1441.00
2023-01-11T15:16:18.650Z,1432.00
2023-01-11T15:17:18.584Z,1428.00
2023-01-11T15:18:18.605Z,1425.00
2023-01-11T15:19:18.588Z,1421.00
2023-01-11T15:20:18.530Z,1422.00
2023-01-11T15:21:18.499Z,1420.00
2023-01-11T15:22:18.462Z,1418.00
2023-01-11T15:23:18.460Z,1417.00
2023-01-11T15:24:18.415Z,1411.00
2023-01-11T15:25:18.795Z,1407.00
2023-01-11T15:26:18.370Z,1407.00
2023-01-11T15:27:18.606Z,1405.00
2023-01-11T15:28:18.324Z,1408.00
2023-01-11T15:29:18.309Z,1406.00
2023-01-11T15:30:18.289Z,1406.00
2023-01-11T15:31:18.339Z,1401.00
2023-01-11T15:32:18.245Z,1401.00
2023-01-11T15:33:18.370Z,1399.00
2023-01-11T15:34:18.347Z,1391.00
2023-01-11T15:35:18.187Z,1394.00
2023-01-11T15:36:18.170Z,1397.00
2023-01-11T15:37:18.789Z,1395.00
2023-01-11T15:38:18.153Z,1393.00
2023-01-11T15:39:18.121Z,1389.00
2023-01-11T15:40:18.110Z,1388.00
2023-01-11T15:41:18.141Z,1387.00
2023-01-11T15:42:18.076Z,1387.00
2023-01-11T15:43:18.292Z,1387.00
2023-01-11T15:44:18.035Z,1385.00
2023-01-11T15:45:18.016Z,1387.00
2023-01-11T15:46:18.087Z,1383.00
2023-01-11T15:47:17.989Z,1385.00
2023-01-11T15:48:18.298Z,1389.00
2023-01-11T15:49:17.947Z,1391.00
2023-01-11T15:50:18.083Z,1388.00
2023-01-11T15:51:17.909Z,1386.00
2023-01-11T15:52:17.892Z,1387.00
2023-01-11T15:53:17.864Z,1385.00
2023-01-11T15:54:17.856Z,1381.00
2023-01-11T15:55:17.872Z,1377.00
2023-01-11T15:56:17.813Z,1375.00
2023-01-11T15:57:17.792Z,1370.00
2023-01-11T15:58:17.777Z,1371.00
2023-01-11T15:59:17.766Z,1367.00
2023-01-11T16:00:17.748Z,1366.00
2023-01-11T16:01:17.790Z,1363.00
2023-01-11T16:02:17.808Z,1360.00
2023-01-11T16:03:17.713Z,1360.00
2023-01-11T16:04:17.795Z,1358.00
2023-01-11T16:05:17.665Z,1358.00
2023-01-11T16:06:18.325Z,1359.00
2023-01-11T16:07:17.673Z,1361.00
2023-01-11T16:08:17.634Z,1361.00
2023-01-11T16:09:17.813Z,1363.00
2023-01-11T16:10:17.592Z,1362.00
2023-01-11T16:11:17.582Z,1355.00
2023-01-11T16:12:17.566Z,1356.00
2023-01-11T16:13:17.551Z,1361.00
2023-01-11T16:14:17.544Z,1361.00
2023-01-11T16:15:17.527Z,1355.00
2023-01-11T16:16:17.606Z,1353.00
2023-01-11T16:17:17.494Z,1351.00
2023-01-11T16:18:17.479Z,1356.00
2023-01-11T16:19:17.459Z,1359.00
2023-01-11T16:20:17.436Z,1356.00
2023-01-11T16:21:17.421Z,1357.00
2023-01-11T16:22:17.527Z,1354.00
2023-01-11T16:23:17.392Z,1352.00